Terminal Aerodrome Forecast
Issued by NWS Newport/Morehead City, NC

Home | Current Version | Previous Version | Graphics & Text | Print | Product List | Glossary On
Versions: 1 2 3 4 5 6 7 8 9 10 11 12 13 14 15 16 17 18
000
FTUS42 KMHX 241700
TAFEWN
TAF
KEWN 241729Z 2418/2518 27010KT P6SM VCTS BKN050CB
      TEMPO 2418/2419 32010G20KT 3SM TSRA BKN010CB
     FM250400 34005KT P6SM SCT030 BKN100
     FM250800 00000KT 4SM BR BKN100
     FM251300 04005KT P6SM BKN100=

USA.gov is the U.S. government's official web portal to all federal, state and local government web resources and services.